Disclaimer

Please do not use the information listed here in-flight or in-navigation, as they are not provided to us by the airports but are provided by volunteers, so they might be outdated.

Search


Regions


Airport information page

Radio informations:
SIVKAR METEO - 126.6 MHz

Airport informations:
Latitude: 61° 38' 49.38" N
Longitude: 050° 50' 42.18" E
Elevation: 342 feet - 104 meters
Operating hours: 24 hour operations
Operating agency: Civil government, landing fees and diplomatic clearance may be required
Timezone: UTC+3(+4DT) - Last Sunday in March to last Sunday in October
Fuel: N/A

Runway information:
01/19 - 8203 x 164 feet< - >2500 x 50 meters

Recent METARs:
UUYY 190300Z 01004MPS 9999 OVC006 M04/M05 Q1025 R36/450244 TEMPO 2000 SHSN BKN015CB RMK QFE760/1013
UUYY 190330Z 01004MPS 9999 OVC007 M04/M04 Q1025 R36/450244 TEMPO 2000 SHSN BKN015CB RMK QFE760/1013
UUYY 190400Z 01004MPS 9999 OVC007 M04/M04 Q1026 R36/450244 TEMPO 2000 SHSN BKN015CB RMK QFE760/1014

Airport on the map: